createdAt,value
2016-09-24T00:00:10.452Z,0
2016-09-24T00:00:42.849Z,0
2016-09-24T00:01:15.170Z,0
2016-09-24T00:01:47.508Z,0
2016-09-24T00:02:19.837Z,0
2016-09-24T00:02:52.142Z,0
2016-09-24T00:03:24.468Z,0
2016-09-24T00:03:56.794Z,0
2016-09-24T00:04:29.112Z,0
2016-09-24T00:05:01.434Z,0
2016-09-24T00:05:33.763Z,0
2016-09-24T00:06:06.151Z,0
2016-09-24T00:06:38.476Z,0
2016-09-24T00:07:10.802Z,0
2016-09-24T00:07:43.127Z,0
2016-09-24T00:08:15.463Z,0
2016-09-24T00:08:47.786Z,0
2016-09-24T00:09:20.109Z,0
2016-09-24T00:09:52.429Z,0
2016-09-24T00:10:24.759Z,0
2016-09-24T00:10:57.094Z,0
2016-09-24T00:11:29.430Z,0
2016-09-24T00:12:01.749Z,0
2016-09-24T00:12:34.073Z,0
2016-09-24T00:13:06.392Z,0
2016-09-24T00:13:38.702Z,0
2016-09-24T00:14:11.034Z,0
2016-09-24T00:14:43.362Z,0
2016-09-24T00:15:15.685Z,0
2016-09-24T00:15:48.035Z,0
2016-09-24T00:16:20.350Z,0
2016-09-24T00:16:52.683Z,0
2016-09-24T00:17:25.010Z,0
2016-09-24T00:17:57.337Z,0
2016-09-24T00:18:29.671Z,0
2016-09-24T00:19:01.997Z,0
2016-09-24T00:19:34.302Z,0
2016-09-24T00:20:06.626Z,0
2016-09-24T00:20:38.956Z,0
2016-09-24T00:21:11.293Z,0
2016-09-24T00:21:43.618Z,0
2016-09-24T00:22:15.944Z,0
2016-09-24T00:22:48.270Z,0
2016-09-24T00:23:20.597Z,0
2016-09-24T00:23:52.915Z,0
2016-09-24T00:24:25.230Z,0
2016-09-24T00:24:57.547Z,0
2016-09-24T00:25:29.866Z,0
2016-09-24T00:26:02.200Z,0
2016-09-24T00:26:34.530Z,0
2016-09-24T00:27:06.861Z,0
2016-09-24T00:27:39.190Z,0
2016-09-24T00:28:11.512Z,0
2016-09-24T00:28:43.837Z,0
2016-09-24T00:29:16.159Z,0
2016-09-24T00:29:48.484Z,0
2016-09-24T00:30:20.820Z,0
2016-09-24T00:30:53.139Z,0
2016-09-24T00:31:25.463Z,0
2016-09-24T00:31:57.788Z,0
2016-09-24T00:32:30.792Z,0
2016-09-24T00:33:03.125Z,0
2016-09-24T00:33:35.458Z,0
2016-09-24T00:34:07.787Z,0
2016-09-24T00:34:40.116Z,0
2016-09-24T00:35:12.439Z,0
2016-09-24T00:35:44.759Z,0
2016-09-24T00:36:17.076Z,0
2016-09-24T00:36:49.397Z,0
2016-09-24T00:37:21.720Z,0
2016-09-24T00:37:54.051Z,0
2016-09-24T00:38:26.381Z,0
2016-09-24T00:38:58.703Z,0
2016-09-24T00:39:31.021Z,0
2016-09-24T00:40:03.357Z,0
2016-09-24T00:40:35.677Z,0
2016-09-24T00:41:07.995Z,0
2016-09-24T00:41:40.306Z,0
2016-09-24T00:42:12.631Z,0
2016-09-24T00:42:44.954Z,0
2016-09-24T00:43:17.283Z,0
2016-09-24T00:43:49.603Z,0
2016-09-24T00:44:21.936Z,0
2016-09-24T00:44:54.255Z,0
2016-09-24T00:45:26.578Z,0
2016-09-24T00:45:58.907Z,0
2016-09-24T00:46:31.241Z,0
2016-09-24T00:47:03.555Z,0
2016-09-24T00:47:35.869Z,0
2016-09-24T00:48:08.185Z,0
2016-09-24T00:48:40.514Z,0
2016-09-24T00:49:12.842Z,0
2016-09-24T00:49:45.174Z,0
2016-09-24T00:50:17.489Z,0
2016-09-24T00:50:49.801Z,0
2016-09-24T00:51:22.141Z,0
2016-09-24T00:51:54.464Z,0
2016-09-24T00:52:26.788Z,0
2016-09-24T00:52:59.112Z,0
2016-09-24T00:53:31.450Z,0
2016-09-24T00:54:03.776Z,0
2016-09-24T00:54:36.119Z,0
2016-09-24T00:55:08.450Z,0
2016-09-24T00:55:40.768Z,0
2016-09-24T00:56:13.080Z,0
2016-09-24T00:56:45.410Z,0
2016-09-24T00:57:17.744Z,0
2016-09-24T00:57:50.053Z,0
2016-09-24T00:58:22.398Z,0
2016-09-24T00:58:54.720Z,0
2016-09-24T00:59:27.055Z,0
2016-09-24T00:59:59.386Z,0
2016-09-24T01:00:31.710Z,0
2016-09-24T01:01:04.051Z,0
2016-09-24T01:01:36.378Z,0
2016-09-24T01:02:08.702Z,0
2016-09-24T01:02:41.032Z,0
2016-09-24T01:03:13.354Z,0
2016-09-24T01:03:45.677Z,0
2016-09-24T01:04:18.000Z,0
2016-09-24T01:04:50.324Z,0
2016-09-24T01:05:22.658Z,0
2016-09-24T01:05:54.991Z,0
2016-09-24T01:06:27.322Z,0
2016-09-24T01:06:59.653Z,0
2016-09-24T01:07:31.976Z,0
2016-09-24T01:08:04.306Z,0
2016-09-24T01:08:36.622Z,0
2016-09-24T01:09:08.961Z,0
2016-09-24T01:09:41.284Z,0
2016-09-24T01:10:13.595Z,0
2016-09-24T01:10:45.920Z,0
2016-09-24T01:11:18.231Z,0
2016-09-24T01:11:50.550Z,0
2016-09-24T01:12:22.866Z,0
2016-09-24T01:12:55.207Z,0
2016-09-24T01:13:27.539Z,0
2016-09-24T01:13:59.870Z,0
2016-09-24T01:14:32.215Z,0
2016-09-24T01:15:04.548Z,0
2016-09-24T01:15:36.870Z,0
2016-09-24T01:16:09.207Z,0
2016-09-24T01:16:41.535Z,0
2016-09-24T01:17:13.855Z,0
2016-09-24T01:17:46.179Z,0
2016-09-24T01:18:18.512Z,0
2016-09-24T01:18:50.836Z,0
2016-09-24T01:19:23.168Z,0
2016-09-24T01:19:55.500Z,0
2016-09-24T01:20:27.822Z,0
2016-09-24T01:21:00.134Z,0
2016-09-24T01:21:32.468Z,0
2016-09-24T01:22:04.785Z,0
2016-09-24T01:22:37.117Z,0
2016-09-24T01:23:09.463Z,0
2016-09-24T01:23:41.775Z,0
2016-09-24T01:24:14.101Z,0
2016-09-24T01:24:46.423Z,0
2016-09-24T01:25:18.767Z,0
2016-09-24T01:25:51.084Z,0
2016-09-24T01:26:23.418Z,0
2016-09-24T01:26:55.752Z,0
2016-09-24T01:27:28.079Z,0
2016-09-24T01:28:00.408Z,0
2016-09-24T01:28:32.727Z,0
2016-09-24T01:29:05.064Z,0
2016-09-24T01:29:37.383Z,0
2016-09-24T01:30:09.707Z,0
2016-09-24T01:30:42.029Z,0
2016-09-24T01:31:14.355Z,0
2016-09-24T01:31:46.676Z,0
2016-09-24T01:32:19.014Z,0
2016-09-24T01:32:51.339Z,0
2016-09-24T01:33:23.675Z,0
2016-09-24T01:33:55.996Z,0
2016-09-24T01:34:28.324Z,0
2016-09-24T01:35:00.633Z,0
2016-09-24T01:35:32.953Z,0
2016-09-24T01:36:05.279Z,0
2016-09-24T01:36:37.605Z,0
2016-09-24T01:37:09.965Z,0
2016-09-24T01:37:42.282Z,0
2016-09-24T01:38:14.629Z,0
2016-09-24T01:38:46.954Z,0
2016-09-24T01:39:19.296Z,0
2016-09-24T01:39:51.621Z,0
2016-09-24T01:40:23.950Z,0
2016-09-24T01:40:56.273Z,0
2016-09-24T01:41:28.579Z,0
2016-09-24T01:42:00.906Z,0
2016-09-24T01:42:33.237Z,0
2016-09-24T01:43:05.705Z,0
2016-09-24T01:43:38.040Z,0
2016-09-24T01:44:10.368Z,0
2016-09-24T01:44:42.701Z,0
2016-09-24T01:45:15.028Z,0
2016-09-24T01:45:47.372Z,0
2016-09-24T01:46:19.701Z,0
2016-09-24T01:46:52.035Z,0
2016-09-24T01:47:24.363Z,0
2016-09-24T01:47:56.681Z,0
2016-09-24T01:48:29.008Z,0
2016-09-24T01:49:01.326Z,0
2016-09-24T01:49:33.661Z,0
2016-09-24T01:50:06.002Z,0
2016-09-24T01:50:38.341Z,0
2016-09-24T01:51:10.669Z,0
2016-09-24T01:51:42.996Z,0
2016-09-24T01:52:15.339Z,0
2016-09-24T01:52:47.661Z,0
2016-09-24T01:53:19.977Z,0
2016-09-24T01:53:52.285Z,0
2016-09-24T01:54:24.602Z,0
2016-09-24T01:54:56.934Z,0
2016-09-24T01:55:29.237Z,0
2016-09-24T01:56:01.556Z,0
2016-09-24T01:56:33.877Z,0
2016-09-24T01:57:06.208Z,0
2016-09-24T01:57:38.534Z,0
2016-09-24T01:58:10.864Z,0
2016-09-24T01:58:43.191Z,0
2016-09-24T01:59:15.525Z,0
2016-09-24T01:59:47.849Z,0
2016-09-24T02:00:20.176Z,0
2016-09-24T02:00:52.491Z,0
2016-09-24T02:01:24.816Z,0
2016-09-24T02:01:57.143Z,0
2016-09-24T02:02:29.479Z,0
2016-09-24T02:03:01.814Z,0
2016-09-24T02:03:34.146Z,0
2016-09-24T02:04:06.469Z,0
2016-09-24T02:04:38.790Z,0
2016-09-24T02:05:11.099Z,0
2016-09-24T02:05:43.408Z,0
2016-09-24T02:06:15.717Z,0
2016-09-24T02:06:48.032Z,0
2016-09-24T02:07:20.376Z,0
2016-09-24T02:07:52.708Z,0
2016-09-24T02:08:25.040Z,0
2016-09-24T02:08:57.360Z,0
2016-09-24T02:09:29.699Z,0
2016-09-24T02:10:02.025Z,0
2016-09-24T02:10:34.332Z,0
2016-09-24T02:11:06.656Z,0
2016-09-24T02:11:38.990Z,0
2016-09-24T02:12:11.315Z,0
2016-09-24T02:12:43.632Z,0
2016-09-24T02:13:15.956Z,0
2016-09-24T02:13:48.297Z,0
2016-09-24T02:14:20.612Z,0
2016-09-24T02:14:52.938Z,0
2016-09-24T02:15:25.255Z,0
2016-09-24T02:15:57.592Z,0
2016-09-24T02:16:29.923Z,0
2016-09-24T02:17:02.244Z,0
2016-09-24T02:17:34.578Z,0
2016-09-24T02:18:06.898Z,0
2016-09-24T02:18:39.206Z,0
2016-09-24T02:19:11.515Z,0
2016-09-24T02:19:43.843Z,0
2016-09-24T02:20:16.159Z,0
2016-09-24T02:20:48.483Z,0
2016-09-24T02:21:20.793Z,0
2016-09-24T02:21:53.116Z,0
2016-09-24T02:22:25.459Z,0
2016-09-24T02:22:57.796Z,0
2016-09-24T02:23:30.118Z,0
2016-09-24T02:24:02.448Z,0
2016-09-24T02:24:34.767Z,0
2016-09-24T02:25:07.104Z,0
2016-09-24T02:25:39.432Z,0
2016-09-24T02:26:11.757Z,0
2016-09-24T02:26:44.083Z,0
2016-09-24T02:27:16.419Z,0
2016-09-24T02:27:48.744Z,0
2016-09-24T02:28:21.068Z,0
2016-09-24T02:28:53.409Z,0
2016-09-24T02:29:25.735Z,0
2016-09-24T02:29:58.058Z,0
2016-09-24T02:30:30.388Z,0
2016-09-24T02:31:02.717Z,0
2016-09-24T02:31:35.040Z,0
2016-09-24T02:32:07.370Z,0
2016-09-24T02:32:39.693Z,0
2016-09-24T02:33:12.017Z,0
2016-09-24T02:33:44.334Z,0
2016-09-24T02:34:16.642Z,0
2016-09-24T02:34:48.969Z,0
2016-09-24T02:35:21.285Z,0
2016-09-24T02:35:53.614Z,0
2016-09-24T02:36:25.932Z,0
2016-09-24T02:36:58.261Z,0
2016-09-24T02:37:30.587Z,0
2016-09-24T02:38:02.911Z,0
2016-09-24T02:38:35.245Z,0
2016-09-24T02:39:07.593Z,0
2016-09-24T02:39:39.919Z,0
2016-09-24T02:40:12.229Z,0
2016-09-24T02:40:44.553Z,0
2016-09-24T02:41:16.881Z,0
2016-09-24T02:41:49.202Z,0
2016-09-24T02:42:21.517Z,0
2016-09-24T02:42:53.838Z,0
2016-09-24T02:43:26.175Z,0
2016-09-24T02:43:58.509Z,0
2016-09-24T02:44:30.829Z,0
2016-09-24T02:45:03.148Z,0
2016-09-24T02:45:35.468Z,0
2016-09-24T02:46:07.790Z,0
2016-09-24T02:46:40.122Z,0
2016-09-24T02:47:12.443Z,0
2016-09-24T02:47:44.744Z,0
2016-09-24T02:48:17.079Z,0
2016-09-24T02:48:49.401Z,0
2016-09-24T02:49:21.738Z,0
2016-09-24T02:49:54.068Z,0
2016-09-24T02:50:26.394Z,0
2016-09-24T02:50:58.731Z,0
2016-09-24T02:51:31.061Z,0
2016-09-24T02:52:03.395Z,0
2016-09-24T02:52:35.719Z,0
2016-09-24T02:53:08.052Z,0
2016-09-24T02:53:40.369Z,0
2016-09-24T02:54:12.683Z,0
2016-09-24T02:54:45.003Z,0
2016-09-24T02:55:17.330Z,0
2016-09-24T02:55:49.669Z,0
2016-09-24T02:56:21.994Z,0
2016-09-24T02:56:54.340Z,0
2016-09-24T02:57:26.666Z,0
2016-09-24T02:57:58.989Z,0
2016-09-24T02:58:31.315Z,0
2016-09-24T02:59:03.632Z,0
2016-09-24T02:59:35.953Z,0
2016-09-24T03:00:08.266Z,0
2016-09-24T03:00:40.591Z,0
2016-09-24T03:01:12.905Z,0
2016-09-24T03:01:45.237Z,0
2016-09-24T03:02:17.573Z,0
2016-09-24T03:02:49.903Z,0
2016-09-24T03:03:22.238Z,0
2016-09-24T03:03:54.549Z,0
2016-09-24T03:04:26.866Z,0
2016-09-24T03:04:59.191Z,0
2016-09-24T03:05:31.523Z,0
2016-09-24T03:06:03.851Z,0
2016-09-24T03:06:36.180Z,0
2016-09-24T03:07:08.528Z,0
2016-09-24T03:07:40.840Z,0
2016-09-24T03:08:13.173Z,0
2016-09-24T03:08:45.496Z,0
2016-09-24T03:09:17.824Z,0
2016-09-24T03:09:50.154Z,0
2016-09-24T03:10:22.482Z,0
2016-09-24T03:10:54.800Z,0
2016-09-24T03:11:27.132Z,0
2016-09-24T03:11:59.464Z,0
2016-09-24T03:12:31.781Z,0
2016-09-24T03:13:04.105Z,0
2016-09-24T03:13:36.439Z,0
2016-09-24T03:14:08.772Z,0
2016-09-24T03:14:41.098Z,0
2016-09-24T03:15:13.423Z,0
2016-09-24T03:15:45.727Z,0
2016-09-24T03:16:18.053Z,0
2016-09-24T03:16:50.385Z,0
2016-09-24T03:17:22.703Z,0
2016-09-24T03:17:55.015Z,0
2016-09-24T03:18:27.343Z,0
2016-09-24T03:18:59.669Z,0
2016-09-24T03:19:31.985Z,0
2016-09-24T03:20:04.318Z,0
2016-09-24T03:20:36.650Z,0
2016-09-24T03:21:08.984Z,0
2016-09-24T03:21:41.298Z,0
2016-09-24T03:22:13.646Z,0
2016-09-24T03:22:45.973Z,0
2016-09-24T03:23:18.312Z,0
2016-09-24T03:23:50.638Z,0
2016-09-24T03:24:22.963Z,0
2016-09-24T03:24:55.301Z,0
2016-09-24T03:25:27.636Z,0
2016-09-24T03:25:59.960Z,0
2016-09-24T03:26:32.280Z,0
2016-09-24T03:27:04.620Z,0
2016-09-24T03:27:36.940Z,0
2016-09-24T03:28:09.268Z,0
2016-09-24T03:28:41.593Z,0
2016-09-24T03:29:13.927Z,0
2016-09-24T03:29:46.237Z,0
2016-09-24T03:30:18.555Z,0
2016-09-24T03:30:50.876Z,0
2016-09-24T03:31:23.205Z,0
2016-09-24T03:31:55.522Z,0
2016-09-24T03:32:27.849Z,0
2016-09-24T03:33:00.184Z,0
2016-09-24T03:33:32.505Z,0
2016-09-24T03:34:04.828Z,0
2016-09-24T03:34:37.154Z,0
2016-09-24T03:35:09.472Z,0
2016-09-24T03:35:41.811Z,0
2016-09-24T03:36:14.138Z,0
2016-09-24T03:36:46.482Z,0
2016-09-24T03:37:18.806Z,0
2016-09-24T03:37:51.135Z,0
2016-09-24T03:38:23.472Z,0
2016-09-24T03:38:55.803Z,0
2016-09-24T03:39:28.117Z,0
2016-09-24T03:40:00.444Z,0
2016-09-24T03:40:32.780Z,0
2016-09-24T03:41:05.105Z,0
2016-09-24T03:41:37.422Z,0
2016-09-24T03:42:09.734Z,0
2016-09-24T03:42:42.062Z,0
2016-09-24T03:43:14.384Z,0
2016-09-24T03:43:46.704Z,0
2016-09-24T03:44:19.028Z,0
2016-09-24T03:44:51.353Z,0
2016-09-24T03:45:23.684Z,0
2016-09-24T03:45:55.992Z,0
2016-09-24T03:46:28.298Z,0
2016-09-24T03:47:00.629Z,0
2016-09-24T03:47:32.952Z,0
2016-09-24T03:48:05.273Z,0
2016-09-24T03:48:37.599Z,0
2016-09-24T03:49:09.924Z,0
2016-09-24T03:49:42.258Z,0
2016-09-24T03:50:14.610Z,0
2016-09-24T03:50:46.942Z,0
2016-09-24T03:51:19.268Z,0
2016-09-24T03:51:51.584Z,0
2016-09-24T03:52:23.908Z,0
2016-09-24T03:52:56.250Z,0
2016-09-24T03:53:28.572Z,0
2016-09-24T03:54:00.897Z,0
2016-09-24T03:54:33.229Z,0
2016-09-24T03:55:05.564Z,0
2016-09-24T03:55:37.892Z,0
2016-09-24T03:56:10.200Z,0
2016-09-24T03:56:42.522Z,0
2016-09-24T03:57:14.851Z,0
2016-09-24T03:57:47.166Z,0
2016-09-24T03:58:19.503Z,0
2016-09-24T03:58:51.821Z,0
2016-09-24T03:59:24.164Z,0
2016-09-24T03:59:56.492Z,0
2016-09-24T04:00:28.823Z,0
2016-09-24T04:01:01.154Z,0
2016-09-24T04:01:33.483Z,0
2016-09-24T04:02:05.833Z,0
2016-09-24T04:02:38.147Z,0
2016-09-24T04:03:10.490Z,0
2016-09-24T04:03:42.818Z,0
2016-09-24T04:04:15.144Z,0
2016-09-24T04:04:47.479Z,0
2016-09-24T04:05:19.824Z,0
2016-09-24T04:05:52.151Z,0
2016-09-24T04:06:24.462Z,0
2016-09-24T04:06:56.801Z,0
2016-09-24T04:07:29.125Z,0
2016-09-24T04:08:01.448Z,0
2016-09-24T04:08:33.774Z,0
2016-09-24T04:09:06.097Z,0
2016-09-24T04:09:38.422Z,0
2016-09-24T04:10:10.758Z,0
2016-09-24T04:10:43.100Z,0
2016-09-24T04:11:15.411Z,0
2016-09-24T04:11:47.729Z,0
2016-09-24T04:12:20.065Z,0
2016-09-24T04:12:52.395Z,0
2016-09-24T04:13:24.717Z,0
2016-09-24T04:13:57.068Z,0
2016-09-24T04:14:29.403Z,0
2016-09-24T04:15:01.719Z,0
2016-09-24T04:15:34.085Z,0
2016-09-24T04:16:06.409Z,0
2016-09-24T04:16:38.756Z,0
2016-09-24T04:17:11.072Z,0
2016-09-24T04:17:43.396Z,0
2016-09-24T04:18:15.727Z,0
2016-09-24T04:18:48.047Z,0
2016-09-24T04:19:20.371Z,0
2016-09-24T04:19:52.697Z,0
2016-09-24T04:20:25.045Z,0
2016-09-24T04:20:57.370Z,0
2016-09-24T04:21:29.699Z,0
2016-09-24T04:22:02.018Z,0
2016-09-24T04:22:34.349Z,0
2016-09-24T04:23:06.665Z,0
2016-09-24T04:23:38.992Z,0
2016-09-24T04:24:11.313Z,0
2016-09-24T04:24:43.639Z,0
2016-09-24T04:25:15.956Z,0
2016-09-24T04:25:48.275Z,0
2016-09-24T04:26:20.597Z,0
2016-09-24T04:26:52.905Z,0
2016-09-24T04:27:25.228Z,0
2016-09-24T04:27:57.561Z,0
2016-09-24T04:28:29.892Z,0
2016-09-24T04:29:02.194Z,0
2016-09-24T04:29:34.511Z,0
2016-09-24T04:30:06.848Z,0
2016-09-24T04:30:39.180Z,0
2016-09-24T04:31:11.513Z,0
2016-09-24T04:31:43.846Z,0
2016-09-24T04:32:16.168Z,0
2016-09-24T04:32:48.482Z,0
2016-09-24T04:33:20.801Z,0
2016-09-24T04:33:53.131Z,0
2016-09-24T04:34:25.455Z,0
2016-09-24T04:34:57.784Z,0
2016-09-24T04:35:30.092Z,0
2016-09-24T04:36:02.411Z,0
2016-09-24T04:36:34.734Z,0
2016-09-24T04:37:07.070Z,0
2016-09-24T04:37:39.376Z,0
2016-09-24T04:38:11.692Z,0
2016-09-24T04:38:44.043Z,0
2016-09-24T04:39:16.357Z,0
2016-09-24T04:39:48.695Z,0
2016-09-24T04:40:21.015Z,0
2016-09-24T04:40:53.331Z,0
2016-09-24T04:41:25.649Z,0
2016-09-24T04:41:57.977Z,0
2016-09-24T04:42:30.302Z,0
2016-09-24T04:43:02.627Z,0
2016-09-24T04:43:34.966Z,0
2016-09-24T04:44:07.284Z,0
2016-09-24T04:44:39.600Z,0
2016-09-24T04:45:11.927Z,0
2016-09-24T04:45:44.259Z,0
2016-09-24T04:46:16.567Z,0
2016-09-24T04:46:48.903Z,0
2016-09-24T04:47:21.227Z,0
2016-09-24T04:47:53.544Z,0
2016-09-24T04:48:25.864Z,0
2016-09-24T04:48:58.189Z,0
2016-09-24T04:49:30.513Z,0
2016-09-24T04:50:02.826Z,0
2016-09-24T04:50:35.126Z,0
2016-09-24T04:51:07.437Z,0
2016-09-24T04:51:39.765Z,0
2016-09-24T04:52:12.088Z,0
2016-09-24T04:52:44.414Z,0
2016-09-24T04:53:16.750Z,0
2016-09-24T04:53:49.083Z,0
2016-09-24T04:54:21.405Z,0
2016-09-24T04:54:53.736Z,4
2016-09-24T04:55:26.071Z,4
2016-09-24T04:55:58.397Z,4
2016-09-24T04:56:30.722Z,4
2016-09-24T04:57:03.046Z,4
2016-09-24T04:57:35.374Z,4
2016-09-24T04:58:07.693Z,0
2016-09-24T04:58:40.013Z,4
2016-09-24T04:59:12.337Z,4
2016-09-24T04:59:44.658Z,4
2016-09-24T05:00:16.977Z,4
2016-09-24T05:00:49.302Z,8
2016-09-24T05:01:21.657Z,4
2016-09-24T05:01:53.986Z,4
2016-09-24T05:02:26.314Z,8
2016-09-24T05:02:58.667Z,8
2016-09-24T05:03:31.004Z,12
2016-09-24T05:04:03.327Z,8
2016-09-24T05:04:35.644Z,12
2016-09-24T05:05:07.972Z,12
2016-09-24T05:05:40.294Z,12
2016-09-24T05:06:12.618Z,12
2016-09-24T05:06:44.942Z,16
2016-09-24T05:07:17.264Z,16
2016-09-24T05:07:49.592Z,16
2016-09-24T05:08:21.895Z,16
2016-09-24T05:08:54.221Z,20
2016-09-24T05:09:26.541Z,20
2016-09-24T05:09:58.869Z,24
2016-09-24T05:10:31.182Z,24
2016-09-24T05:11:03.514Z,28
2016-09-24T05:11:35.850Z,24
2016-09-24T05:12:08.181Z,28
2016-09-24T05:12:40.519Z,32
2016-09-24T05:13:12.842Z,36
2016-09-24T05:13:45.157Z,36
2016-09-24T05:14:17.484Z,36
2016-09-24T05:14:49.810Z,40
2016-09-24T05:15:22.135Z,40
2016-09-24T05:15:54.471Z,44
2016-09-24T05:16:26.777Z,44
2016-09-24T05:16:59.108Z,48
2016-09-24T05:17:31.438Z,48
2016-09-24T05:18:03.772Z,52
2016-09-24T05:18:36.092Z,56
2016-09-24T05:19:08.413Z,60
2016-09-24T05:19:40.746Z,64
2016-09-24T05:20:13.065Z,64
2016-09-24T05:20:45.388Z,68
2016-09-24T05:21:17.716Z,68
2016-09-24T05:21:50.039Z,76
2016-09-24T05:22:22.365Z,76
2016-09-24T05:22:54.708Z,80
2016-09-24T05:23:27.033Z,84
2016-09-24T05:23:59.367Z,88
2016-09-24T05:24:31.691Z,92
2016-09-24T05:25:04.023Z,96
2016-09-24T05:25:36.352Z,104
2016-09-24T05:26:08.677Z,108
2016-09-24T05:26:41.006Z,108
2016-09-24T05:27:13.330Z,112
2016-09-24T05:27:45.667Z,116
2016-09-24T05:28:17.986Z,120
2016-09-24T05:28:50.311Z,124
2016-09-24T05:29:22.642Z,132
2016-09-24T05:29:54.953Z,132
2016-09-24T05:30:27.291Z,136
2016-09-24T05:30:59.626Z,144
2016-09-24T05:31:31.952Z,148
2016-09-24T05:32:04.288Z,152
2016-09-24T05:32:36.618Z,152
2016-09-24T05:33:08.950Z,156
2016-09-24T05:33:41.270Z,160
2016-09-24T05:34:13.587Z,168
2016-09-24T05:34:45.908Z,168
2016-09-24T05:35:18.228Z,176
2016-09-24T05:35:50.557Z,176
2016-09-24T05:36:22.877Z,180
2016-09-24T05:36:55.208Z,184
2016-09-24T05:37:27.545Z,188
2016-09-24T05:37:59.853Z,188
2016-09-24T05:38:32.185Z,196
2016-09-24T05:39:04.531Z,200
2016-09-24T05:39:36.866Z,208
2016-09-24T05:40:09.199Z,208
2016-09-24T05:40:41.497Z,216
2016-09-24T05:41:13.819Z,224
2016-09-24T05:41:46.147Z,228
2016-09-24T05:42:18.472Z,236
2016-09-24T05:42:50.800Z,240
2016-09-24T05:43:23.139Z,244
2016-09-24T05:43:55.458Z,252
2016-09-24T05:44:27.772Z,256
2016-09-24T05:45:00.104Z,264
2016-09-24T05:45:32.430Z,276
2016-09-24T05:46:04.759Z,284
2016-09-24T05:46:37.084Z,292
2016-09-24T05:47:09.407Z,300
2016-09-24T05:47:41.738Z,308
2016-09-24T05:48:14.063Z,316
2016-09-24T05:48:46.380Z,328
2016-09-24T05:49:18.707Z,336
2016-09-24T05:49:51.038Z,348
2016-09-24T05:50:23.381Z,356
2016-09-24T05:50:55.715Z,368
2016-09-24T05:51:28.042Z,380
2016-09-24T05:52:00.363Z,388
2016-09-24T05:52:32.702Z,396
2016-09-24T05:53:05.024Z,408
2016-09-24T05:53:37.354Z,416
2016-09-24T05:54:09.673Z,424
2016-09-24T05:54:41.999Z,432
2016-09-24T05:55:14.328Z,444
2016-09-24T05:55:46.650Z,456
2016-09-24T05:56:18.961Z,464
2016-09-24T05:56:51.278Z,468
2016-09-24T05:57:23.606Z,480
2016-09-24T05:57:55.937Z,488
2016-09-24T05:58:28.258Z,504
2016-09-24T05:59:00.563Z,516
2016-09-24T05:59:32.895Z,528
2016-09-24T06:00:05.219Z,540
2016-09-24T06:00:37.555Z,548
2016-09-24T06:01:09.896Z,560
2016-09-24T06:01:42.247Z,572
2016-09-24T06:02:14.567Z,580
2016-09-24T06:02:46.889Z,592
2016-09-24T06:03:19.214Z,596
2016-09-24T06:03:51.542Z,620
2016-09-24T06:04:23.867Z,680
2016-09-24T06:04:56.191Z,744
2016-09-24T06:05:28.502Z,716
2016-09-24T06:06:00.811Z,648
2016-09-24T06:06:33.136Z,612
2016-09-24T06:07:05.465Z,616
2016-09-24T06:07:37.789Z,628
2016-09-24T06:08:10.097Z,636
2016-09-24T06:08:42.412Z,656
2016-09-24T06:09:14.755Z,680
2016-09-24T06:09:47.082Z,720
2016-09-24T06:10:19.412Z,704
2016-09-24T06:10:51.746Z,700
2016-09-24T06:11:24.068Z,736
2016-09-24T06:11:56.389Z,716
2016-09-24T06:12:28.716Z,720
2016-09-24T06:13:01.045Z,760
2016-09-24T06:13:33.372Z,820
2016-09-24T06:14:05.699Z,848
2016-09-24T06:14:38.019Z,780
2016-09-24T06:15:10.343Z,1132
2016-09-24T06:15:42.671Z,1196
2016-09-24T06:16:14.994Z,1296
2016-09-24T06:16:47.327Z,1288
2016-09-24T06:17:19.643Z,1408
2016-09-24T06:17:51.944Z,1432
2016-09-24T06:18:24.257Z,1432
2016-09-24T06:18:56.599Z,1444
2016-09-24T06:19:28.929Z,1468
2016-09-24T06:20:01.254Z,1448
2016-09-24T06:20:33.590Z,1420
2016-09-24T06:21:05.929Z,1456
2016-09-24T06:21:38.252Z,1572
2016-09-24T06:22:10.569Z,1600
2016-09-24T06:22:42.901Z,1608
2016-09-24T06:23:15.238Z,1644
2016-09-24T06:23:47.539Z,1688
2016-09-24T06:24:19.873Z,1688
2016-09-24T06:24:52.191Z,1672
2016-09-24T06:25:24.519Z,1696
2016-09-24T06:25:56.840Z,1752
2016-09-24T06:26:29.172Z,1776
2016-09-24T06:27:01.511Z,1788
2016-09-24T06:27:33.830Z,1784
2016-09-24T06:28:06.153Z,1796
2016-09-24T06:28:38.465Z,1804
2016-09-24T06:29:10.775Z,1856
2016-09-24T06:29:43.106Z,1872
2016-09-24T06:30:15.432Z,1900
2016-09-24T06:30:47.750Z,1920
2016-09-24T06:31:20.090Z,1944
2016-09-24T06:31:52.411Z,1972
2016-09-24T06:32:24.746Z,1996
2016-09-24T06:32:57.080Z,2024
2016-09-24T06:33:29.412Z,2056
2016-09-24T06:34:01.751Z,2080
2016-09-24T06:34:34.108Z,2072
2016-09-24T06:35:06.445Z,2052
2016-09-24T06:35:38.792Z,2032
2016-09-24T06:36:11.180Z,2020
2016-09-24T06:36:43.507Z,2020
2016-09-24T06:37:15.903Z,2040
2016-09-24T06:37:48.233Z,2044
2016-09-24T06:38:20.594Z,2052
2016-09-24T06:38:52.902Z,2068
2016-09-24T06:39:25.219Z,2068
2016-09-24T06:39:57.534Z,2080
2016-09-24T06:40:29.874Z,2128
2016-09-24T06:41:02.191Z,2168
2016-09-24T06:41:34.519Z,2220
2016-09-24T06:42:26.393Z,2304
2016-09-24T06:42:58.716Z,2340
2016-09-24T06:43:31.051Z,2360
2016-09-24T06:44:03.379Z,2376
2016-09-24T06:44:35.703Z,2360
2016-09-24T06:45:08.073Z,2336
2016-09-24T06:45:40.379Z,2292
2016-09-24T06:46:12.717Z,2252
2016-09-24T06:46:45.066Z,2196
2016-09-24T06:47:17.397Z,2204
2016-09-24T06:47:49.731Z,2184
2016-09-24T06:48:22.065Z,2184
2016-09-24T06:48:54.435Z,2180
2016-09-24T06:49:26.780Z,2244
2016-09-24T06:49:59.107Z,2328
2016-09-24T06:50:31.428Z,2420
2016-09-24T06:51:03.760Z,2412
2016-09-24T06:51:36.082Z,2412
2016-09-24T06:52:08.403Z,2420
2016-09-24T06:52:40.732Z,2300
2016-09-24T06:53:13.070Z,2312
2016-09-24T06:53:45.401Z,2328
2016-09-24T06:54:17.747Z,2316
2016-09-24T06:54:50.069Z,2256
2016-09-24T06:55:22.402Z,2224
2016-09-24T06:55:54.731Z,2228
2016-09-24T06:56:27.063Z,2240
2016-09-24T06:56:59.388Z,2292
2016-09-24T06:57:31.709Z,2308
2016-09-24T06:58:04.032Z,2256
2016-09-24T06:58:36.374Z,2200
2016-09-24T06:59:08.694Z,2144
2016-09-24T06:59:41.029Z,2052
2016-09-24T07:00:13.356Z,2032
2016-09-24T07:00:45.673Z,2068
2016-09-24T07:01:18.003Z,2072
2016-09-24T07:01:50.331Z,2088
2016-09-24T07:02:22.670Z,2132
2016-09-24T07:02:54.997Z,2164
2016-09-24T07:03:27.431Z,2272
2016-09-24T07:03:59.764Z,2476
2016-09-24T07:04:32.094Z,2556
2016-09-24T07:05:04.433Z,2608
2016-09-24T07:05:36.772Z,2632
2016-09-24T07:06:09.098Z,2648
2016-09-24T07:06:41.432Z,2644
2016-09-24T07:07:13.778Z,2640
2016-09-24T07:07:46.102Z,2608
2016-09-24T07:08:18.432Z,2624
2016-09-24T07:08:50.750Z,2612
2016-09-24T07:09:23.081Z,2616
2016-09-24T07:09:55.411Z,2640
2016-09-24T07:10:27.747Z,2672
2016-09-24T07:11:00.076Z,2692
2016-09-24T07:11:32.422Z,2696
2016-09-24T07:12:04.753Z,2664
2016-09-24T07:12:37.084Z,2660
2016-09-24T07:13:09.420Z,2680
2016-09-24T07:13:41.757Z,2676
2016-09-24T07:14:14.085Z,2668
2016-09-24T07:14:46.427Z,2664
2016-09-24T07:15:18.745Z,2680
2016-09-24T07:15:51.073Z,2696
2016-09-24T07:16:23.407Z,2676
2016-09-24T07:16:55.730Z,2664
2016-09-24T07:17:28.068Z,2648
2016-09-24T07:18:00.389Z,2656
2016-09-24T07:18:32.718Z,2644
2016-09-24T07:19:05.084Z,2624
2016-09-24T07:19:37.419Z,2592
2016-09-24T07:20:09.866Z,2548
2016-09-24T07:20:42.190Z,2552
2016-09-24T07:21:14.518Z,2564
2016-09-24T07:21:46.843Z,2588
2016-09-24T07:22:19.188Z,2568
2016-09-24T07:22:51.509Z,2516
2016-09-24T07:23:23.827Z,2528
2016-09-24T07:23:56.152Z,2548
2016-09-24T07:24:28.477Z,2528
2016-09-24T07:25:00.800Z,2488
2016-09-24T07:25:33.132Z,2408
2016-09-24T07:26:05.455Z,2328
2016-09-24T07:26:37.778Z,2396
2016-09-24T07:27:10.110Z,2580
2016-09-24T07:27:42.435Z,2712
2016-09-24T07:28:14.753Z,2768
2016-09-24T07:28:47.061Z,2816
2016-09-24T07:29:19.379Z,2880
2016-09-24T07:29:51.704Z,2856
2016-09-24T07:30:24.024Z,2892
2016-09-24T07:30:56.360Z,2752
2016-09-24T07:31:28.689Z,2804
2016-09-24T07:32:01.010Z,2812
2016-09-24T07:32:33.333Z,2848
2016-09-24T07:33:05.664Z,2808
2016-09-24T07:33:37.977Z,2800
2016-09-24T07:34:10.292Z,2860
2016-09-24T07:34:42.615Z,2852
2016-09-24T07:35:14.951Z,2912
2016-09-24T07:35:47.281Z,2896
2016-09-24T07:36:19.658Z,2760
2016-09-24T07:36:52.008Z,2824
2016-09-24T07:37:24.337Z,2856
2016-09-24T07:37:56.673Z,2880
2016-09-24T07:38:29.012Z,2856
2016-09-24T07:39:01.334Z,2740
2016-09-24T07:39:33.659Z,2544
2016-09-24T07:40:05.987Z,2680
2016-09-24T07:40:38.315Z,2708
2016-09-24T07:41:10.647Z,2668
2016-09-24T07:41:42.984Z,2584
2016-09-24T07:42:15.313Z,2568
2016-09-24T07:42:47.649Z,2544
2016-09-24T07:43:19.973Z,2584
2016-09-24T07:43:52.294Z,2640